Latest Weather Observations for Cape Wessel

IDD60801

Issued at 8:31 am CST Monday 15 February 2016 (issued every 30 minutes, with the page automatically refreshed every 10 minutes)

About weather observations | Map of weather stations | Latest weather observations for NT | Other Formats
Station Details ID: 200786 Name: CAPE WESSEL Lat: -11.00 Lon: 136.76 Height: 18.0 m
Data from the previous 72 hours. | See also: Recent months at Cape Wessel
Date/Time
CST
Temp
°C
App
Temp
°C
Dew
Point
Rel
Hum
%
Delta-T
°C
Wind Press
QNH
hPa
Press
MSL
hPa
Rain
since 9 am
mm
Dir
 
Spd
km/h
Gust
km/h
Spd
kts
Gust
kts
15/08:30am 30.7 35.6 26.4 78 3.1 NW 13 17 7 9 1010.4 1010.3 0.0
15/08:00am 29.7 34.7 26.5 83 2.3 NW 13 15 7 8 1010.1 1010.0 0.0
15/07:30am 29.1 34.3 26.3 85 2.0 WNW 11 13 6 7 1009.9 1009.8 0.0
15/07:00am 27.7 32.8 25.5 88 1.5 N 9 11 5 6 1009.4 1009.3 0.0
15/06:30am 27.0 31.4 24.5 86 1.7 NNW 9 13 5 7 1009.4 1009.3 0.0
15/06:00am 27.1 31.7 24.7 87 1.7 NNW 9 11 5 6 1009.1 1009.0 0.0
15/05:30am 27.3 32.2 24.6 85 1.9 NNW 7 9 4 5 1008.8 1008.7 0.0
15/05:00am 27.4 31.5 24.5 84 2.0 NNW 11 13 6 7 1008.5 1008.4 0.0
15/04:30am 27.4 31.1 24.5 84 2.0 NW 13 15 7 8 1008.5 1008.4 0.0
15/04:00am 27.3 30.9 24.4 84 2.0 NW 13 13 7 7 1008.4 1008.3 0.0
15/03:30am 27.3 31.3 24.4 84 2.0 SSW 11 13 6 7 1008.5 1008.4 0.0
15/03:00am 27.2 31.5 24.3 84 2.0 SSW 9 11 5 6 1008.6 1008.5 0.0
15/02:30am 27.2 31.5 24.3 84 2.0 SSW 9 9 5 5 1008.7 1008.6 0.0
15/02:00am 27.3 31.3 24.4 84 2.0 SSW 11 13 6 7 1008.9 1008.8 0.0
15/01:30am 27.5 32.4 24.7 85 2.0 SSW 7 9 4 5 1009.2 1009.1 0.0
15/01:00am 27.3 31.7 24.4 84 2.0 SSW 9 11 5 6 1009.4 1009.3 0.0
15/12:30am 27.3 31.4 24.6 85 1.9 SSW 11 13 6 7 1009.7 1009.6 0.0
15/12:00am 27.2 31.5 24.3 84 2.0 SSW 9 11 5 6 1009.9 1009.8 0.0
 
Date/Time
CST
Temp
°C
App
Temp
°C
Dew
Point
Rel
Hum
%
Delta-T
°C
Wind Press
QNH
hPa
Press
MSL
hPa
Rain
since 9 am
mm
Dir
 
Spd
km/h
Gust
km/h
Spd
kts
Gust
kts
14/11:30pm 27.3 31.9 24.2 83 2.1 SSW 7 9 4 5 1010.2 1010.1 0.0
14/11:00pm 27.2 33.0 23.9 82 2.3 CALM 0 0 0 0 1010.2 1010.1 0.0
14/10:30pm 27.2 32.7 23.4 80 2.6 CALM 0 0 0 0 1010.0 1009.9 0.0
14/10:00pm 27.4 32.9 23.4 79 2.7 CALM 0 0 0 0 1009.8 1009.7 0.0
14/09:30pm 27.6 33.0 23.2 77 3.0 CALM 0 0 0 0 1009.7 1009.6 0.0
14/09:00pm 27.7 32.0 22.6 74 3.5 SSW 4 6 2 3 1009.4 1009.3 0.0
14/08:30pm 28.1 32.0 23.0 74 3.5 SSW 7 9 4 5 1009.2 1009.1 0.0
14/08:00pm 28.2 31.7 22.9 73 3.6 SSW 9 11 5 6 1008.7 1008.6 0.0
14/07:30pm 28.4 31.9 22.9 72 3.8 SSW 9 11 5 6 1008.7 1008.6 0.0
14/07:00pm 28.6 32.5 22.6 70 4.1 S 6 9 3 5 1008.3 1008.2 0.0
14/06:30pm 29.4 33.8 23.4 70 4.1 E 6 7 3 4 1007.7 1007.6 0.0
14/06:00pm 30.0 35.1 23.4 67 4.6 E 2 7 1 4 1007.3 1007.2 0.0
14/05:30pm 30.4 34.7 23.3 66 4.9 E 6 7 3 4 1007.3 1007.2 0.0
14/05:00pm 30.8 35.0 23.5 65 5.0 N 7 9 4 5 1007.1 1007.0 0.0
14/04:30pm 31.2 36.3 24.6 68 4.6 N 6 9 3 5 1006.8 1006.7 0.0
14/04:00pm 31.5 36.2 24.9 68 4.6 N 9 11 5 6 1006.7 1006.6 0.0
14/03:30pm 31.9 36.8 25.2 67 4.7 N 9 11 5 6 1006.8 1006.7 0.0
14/03:00pm 32.2 37.5 25.8 69 4.6 N 9 11 5 6 1007.0 1006.9 0.0
14/02:30pm 32.0 36.9 25.3 67 4.8 N 9 11 5 6 1007.2 1007.1 0.0
14/02:00pm 32.9 38.4 26.2 68 4.8 N 9 13 5 7 1007.3 1007.2 0.0
14/01:30pm 33.0 38.6 25.8 66 5.1 E 7 11 4 6 1007.4 1007.3 0.0
14/01:00pm 32.4 37.1 25.5 67 4.9 E 11 15 6 8 1007.8 1007.7 0.0
14/12:30pm 32.7 37.5 26.3 69 4.6 E 13 17 7 9 1008.2 1008.1 0.0
14/12:00pm 32.6 37.5 26.4 70 4.5 ENE 13 15 7 8 1008.6 1008.5 0.0
14/11:30am 33.0 38.9 27.3 72 4.1 ESE 11 15 6 8 1008.9 1008.8 0.0
14/11:00am 32.3 37.4 26.1 70 4.4 SE 11 13 6 7 1009.1 1009.0 0.0
14/10:30am 32.4 37.9 26.7 72 4.1 ESE 11 15 6 8 1009.4 1009.3 0.0
14/10:00am 31.8 37.5 26.4 73 3.9 ESE 9 11 5 6 1009.5 1009.4 0.0
14/09:30am 31.7 37.7 26.9 76 3.5 ESE 9 13 5 7 1009.4 1009.3 0.0
14/09:00am 31.3 37.8 27.6 81 2.7 ESE 9 11 5 6 1009.3 1009.2 0.0
14/08:30am 30.6 38.3 28.8 90 1.3 N 7 11 4 6 1009.0 1008.9 0.0
14/08:00am 29.1 36.7 29.1 100 0.0 SE 9 11 5 6 1008.6 1008.5 0.0
14/07:30am 28.3 34.9 28.3 100 0.0 ESE 11 13 6 7 1008.0 1007.9 0.0
14/07:00am 26.8 33.1 26.8 100 0.0 ESE 7 9 4 5 1007.5 1007.4 0.0
14/06:30am 26.6 32.4 26.6 100 0.0 SE 9 11 5 6 1007.2 1007.1 0.0
14/06:00am 26.6 32.4 26.6 100 0.0 SSE 9 11 5 6 1006.7 1006.6 0.0
14/05:30am 26.8 33.0 26.6 99 0.1 SSE 7 9 4 5 1006.3 1006.2 0.0
14/05:00am 27.2 32.9 27.0 99 0.1 SSE 11 13 6 7 1006.1 1006.0 0.0
14/04:30am 27.3 32.8 26.8 97 0.4 SSE 11 13 6 7 1006.0 1005.9 0.0
14/04:00am 27.9 33.7 27.2 96 0.5 SSE 11 15 6 8 1006.1 1006.0 0.0
14/03:30am 28.1 33.3 26.9 93 0.9 SSE 13 17 7 9 1006.3 1006.2 0.0
14/03:00am 28.3 33.3 27.1 93 0.9 SSE 15 19 8 10 1006.4 1006.3 0.0
14/02:30am 28.4 32.4 27.0 92 1.0 SSE 20 22 11 12 1006.6 1006.5 0.0
14/02:00am 28.3 33.0 27.2 94 0.8 SSE 17 20 9 11 1007.0 1006.9 0.0
14/01:30am 28.4 32.9 27.0 92 1.0 SSE 17 20 9 11 1007.3 1007.2 0.0
14/01:00am 28.5 33.2 27.3 93 0.9 SE 17 20 9 11 1007.7 1007.6 0.0
14/12:30am 28.6 33.5 27.5 94 0.8 SE 17 20 9 11 1008.3 1008.2 0.0
14/12:00am 28.3 33.4 27.2 94 0.8 SSE 15 19 8 10 1008.8 1008.7 0.0
 
Date/Time
CST
Temp
°C
App
Temp
°C
Dew
Point
Rel
Hum
%
Delta-T
°C
Wind Press
QNH
hPa
Press
MSL
hPa
Rain
since 9 am
mm
Dir
 
Spd
km/h
Gust
km/h
Spd
kts
Gust
kts
13/11:30pm 28.2 33.7 27.3 95 0.6 SSE 13 17 7 9 1009.1 1009.0 0.0
13/11:00pm 28.0 33.6 26.9 94 0.8 SSE 11 13 6 7 1009.3 1009.2 0.0
13/10:30pm 27.6 32.8 26.9 96 0.5 SSE 13 15 7 8 1009.0 1008.9 0.0
13/10:00pm 27.2 33.9 26.5 96 0.5 W 4 9 2 5 1008.7 1008.6 0.0
13/09:30pm 27.1 34.0 25.7 92 1.0 CALM 0 0 0 0 1008.6 1008.5 0.0
13/09:00pm 27.5 34.5 25.9 91 1.1 CALM 0 0 0 0 1008.3 1008.2 0.0
13/08:30pm 27.6 34.3 25.4 88 1.5 CALM 0 0 0 0 1008.1 1008.0 0.0
13/08:00pm 27.7 34.2 25.1 86 1.8 CALM 0 0 0 0 1007.7 1007.6 0.0
13/07:30pm 28.0 34.3 24.8 83 2.2 CALM 0 0 0 0 1007.5 1007.4 0.0
13/07:00pm 28.6 35.1 25.0 81 2.5 CALM 0 0 0 0 1007.2 1007.1 0.0
13/06:30pm 28.9 34.3 25.1 80 2.7 SE 6 7 3 4 1007.0 1006.9 0.0
13/06:00pm 29.4 35.0 25.4 79 2.8 SE 6 9 3 5 1006.7 1006.6 0.0
13/05:30pm 29.6 34.4 25.1 77 3.2 SSE 9 11 5 6 1006.4 1006.3 0.0
13/05:00pm 29.9 34.3 25.0 75 3.4 SSE 11 13 6 7 1006.0 1005.9 0.0
13/04:30pm 29.9 34.5 24.8 74 3.6 SE 9 13 5 7 1006.2 1006.1 0.0
13/04:00pm 30.2 32.9 24.8 73 3.8 ESE 19 24 10 13 1006.0 1005.9 0.0
13/03:30pm 30.3 32.0 24.7 72 3.9 SSE 24 35 13 19 1006.4 1006.3 0.0
13/03:00pm 33.0 38.1 27.3 72 4.1 SE 15 19 8 10 1006.0 1005.9 0.0
13/02:30pm 32.7 38.1 27.2 73 4.0 SE 13 19 7 10 1006.4 1006.3 0.0
13/02:00pm 32.6 37.9 27.6 75 3.6 SE 15 17 8 9 1006.3 1006.2 0.0
13/01:30pm 32.3 37.0 27.3 75 3.6 SE 17 20 9 11 1006.8 1006.7 0.0
13/01:00pm 31.9 37.0 27.8 79 3.0 SE 17 20 9 11 1007.3 1007.2 0.0
13/12:30pm 31.1 35.9 27.4 81 2.7 SE 17 20 9 11 1007.3 1007.2 0.0
13/12:00pm 31.2 35.9 27.8 82 2.5 SSE 19 24 10 13 1007.5 1007.4 0.0
13/11:30am 31.5 38.6 28.5 84 2.2 W 9 19 5 10 1007.8 1007.7 0.0
13/11:00am 31.8 38.4 28.3 82 2.6 WNW 11 13 6 7 1008.1 1008.0 0.0
13/10:30am 31.7 37.9 28.2 82 2.6 W 13 15 7 8 1008.4 1008.3 0.0
13/10:00am 31.4 38.5 29.0 87 1.8 WSW 11 17 6 9 1008.8 1008.7 0.0
13/09:30am 31.6 39.1 29.9 91 1.3 WSW 13 15 7 8 1008.6 1008.5 0.0
13/09:00am 31.0 38.6 30.6 98 0.3 W 15 17 8 9 1008.5 1008.4 49.8
13/08:30am 30.0 37.5 30.0 100 0.0 W 13 17 7 9 1008.8 1008.7 49.8
13/08:00am 29.0 35.4 29.0 100 0.0 WSW 15 19 8 10 1008.4 1008.3 49.8
13/07:30am 28.0 34.4 28.0 100 0.0 WNW 11 13 6 7 1008.1 1008.0 49.8
13/07:00am 26.9 32.1 26.9 100 0.0 WNW 13 17 7 9 1007.8 1007.7 49.8
13/06:30am 26.6 31.2 26.6 100 0.0 W 15 19 8 10 1007.4 1007.3 49.8
13/06:00am 26.1 27.9 26.1 100 0.0 W 28 33 15 18 1007.4 1007.3 49.4
13/05:46am 26.2 28.5 26.2 100 0.0 W 26 41 14 22 1007.3 1007.2 49.4
13/05:30am 26.3 30.7 26.3 100 0.0 WNW 15 17 8 9 1007.2 1007.1 49.2
13/05:00am 25.7 29.0 25.7 100 0.0 SSW 19 28 10 15 1006.9 1006.8 29.4
13/04:30am 28.7 32.7 27.6 94 0.8 W 22 28 12 15 1006.3 1006.2 21.6
13/04:00am 28.8 34.0 27.9 95 0.7 W 17 20 9 11 1006.1 1006.0 21.6
13/03:30am 29.0 34.4 28.7 98 0.2 W 19 20 10 11 1006.3 1006.2 21.6
13/03:00am 28.9 34.6 28.6 98 0.2 W 17 20 9 11 1006.1 1006.0 21.6
13/02:30am 28.9 34.2 28.6 98 0.2 W 19 22 10 12 1006.4 1006.3 21.6
13/02:00am 29.0 34.6 28.5 97 0.4 W 17 22 9 12 1006.7 1006.6 21.6
13/01:30am 28.9 34.3 28.2 96 0.5 W 17 20 9 11 1007.1 1007.0 21.6
13/01:00am 28.9 34.4 28.4 97 0.4 W 17 20 9 11 1007.2 1007.1 21.6
13/12:30am 28.9 34.7 28.2 96 0.5 W 15 17 8 9 1007.4 1007.3 21.6
13/12:00am 28.9 34.8 28.4 97 0.4 WNW 15 17 8 9 1007.8 1007.7 21.6
 
Date/Time
CST
Temp
°C
App
Temp
°C
Dew
Point
Rel
Hum
%
Delta-T
°C
Wind Press
QNH
hPa
Press
MSL
hPa
Rain
since 9 am
mm
Dir
 
Spd
km/h
Gust
km/h
Spd
kts
Gust
kts
12/11:30pm 28.8 34.1 28.1 96 0.5 WNW 17 20 9 11 1008.1 1008.0 21.6
12/11:00pm 28.7 34.8 27.6 94 0.8 WSW 11 15 6 8 1008.3 1008.2 21.6
12/10:30pm 28.8 34.8 27.4 92 1.0 WSW 11 13 6 7 1008.3 1008.2 21.6
12/10:00pm 28.8 34.6 27.2 91 1.2 WSW 11 13 6 7 1008.5 1008.4 21.6
12/09:30pm 28.9 34.1 26.9 89 1.4 WSW 13 15 7 8 1008.4 1008.3 21.6
12/09:00pm 29.0 33.8 26.8 88 1.6 WSW 15 17 8 9 1008.1 1008.0 21.6
12/08:30pm 29.1 33.4 26.7 87 1.7 W 17 20 9 11 1007.9 1007.8 21.6
12/08:00pm 29.1 33.3 26.5 86 1.9 W 17 19 9 10 1007.3 1007.2 21.6
12/07:30pm 29.4 33.8 26.8 86 1.9 W 17 19 9 10 1006.8 1006.7 21.6
12/07:00pm 29.3 33.0 26.3 84 2.1 W 19 20 10 11 1006.8 1006.7 21.6
12/06:30pm 29.6 33.5 26.0 81 2.6 W 17 19 9 10 1006.5 1006.4 21.6
12/06:00pm 30.7 34.6 26.6 79 2.9 W 19 22 10 12 1006.3 1006.2 21.6
12/05:30pm 31.2 34.7 26.9 78 3.1 W 22 26 12 14 1006.0 1005.9 21.6
12/05:00pm 30.7 34.7 26.8 80 2.8 W 19 24 10 13 1005.8 1005.7 21.6
12/04:30pm 31.8 35.5 27.7 79 3.0 W 24 28 13 15 1005.6 1005.5 21.6
12/04:00pm 31.6 35.8 28.4 83 2.3 WNW 24 30 13 16 1005.6 1005.5 21.6
12/03:30pm 32.1 36.0 28.0 79 3.0 WNW 24 30 13 16 1005.8 1005.7 21.6
12/03:00pm 32.1 35.6 28.4 81 2.7 WNW 28 32 15 17 1005.7 1005.6 21.6
12/02:30pm 32.3 37.2 28.8 82 2.6 WNW 22 32 12 17 1006.0 1005.9 21.6
12/02:00pm 32.3 38.0 29.9 87 1.8 NW 22 28 12 15 1006.2 1006.1 21.6
12/01:30pm 30.3 35.3 28.9 92 1.0 WNW 22 26 12 14 1006.6 1006.5 21.4
12/01:00pm 30.3 35.7 29.4 95 0.7 WNW 22 28 12 15 1007.4 1007.3 21.4
12/12:30pm 30.7 35.5 29.2 92 1.1 WNW 24 28 13 15 1007.6 1007.5 21.4
12/12:00pm 29.7 34.9 29.7 100 0.0 W 24 30 13 16 1007.8 1007.7 21.4
12/11:30am 28.7 33.5 28.7 100 0.0 WNW 22 28 12 15 1008.4 1008.3 21.4
12/11:00am 27.5 32.0 27.5 100 0.0 WNW 19 24 10 13 1008.7 1008.6 21.4
12/10:30am 26.6 30.5 26.6 100 0.0 W 19 24 10 13 1009.1 1009.0 21.4
12/10:00am 25.3 28.3 25.3 100 0.0 W 19 22 10 12 1009.7 1009.6 21.4
12/09:30am 25.2 27.6 25.2 100 0.0 WSW 22 30 12 16 1010.3 1010.2 15.6
12/09:00am 25.5 28.1 25.5 100 0.0 WSW 22 32 12 17 1010.0 1009.9 33.0
12/08:48am 26.1 27.9 26.1 100 0.0 WSW 28 43 15 23 1010.0 1009.9 22.4

Other Formats:

Comma delimited format used in spreadsheet applications
http://www.bom.gov.au/fwo/IDD60801/IDD60801.94147.axf

JavaScript Object Notation format (JSON) in row-major order
http://www.bom.gov.au/fwo/IDD60801/IDD60801.94147.json